createdAt,value
2022-09-17T00:01:51.990Z,83.92
2022-09-17T00:04:21.752Z,83.45
2022-09-17T00:06:54.212Z,83.73
2022-09-17T00:09:23.922Z,84.18
2022-09-17T00:11:53.557Z,83.83
2022-09-17T00:14:23.255Z,83.34
2022-09-17T00:16:52.921Z,84.18
2022-09-17T00:19:25.428Z,84.19
2022-09-17T00:21:57.720Z,83.89
2022-09-17T00:24:27.530Z,84.37
2022-09-17T00:26:57.212Z,83.88
2022-09-17T00:29:27.061Z,83.59
2022-09-17T00:31:56.759Z,82.58
2022-09-17T00:34:26.407Z,84.08
2022-09-17T00:36:58.722Z,83.48
2022-09-17T00:39:28.372Z,84.21
2022-09-17T00:41:58.074Z,84.32
2022-09-17T00:44:48.211Z,83.63
2022-09-17T00:47:22.750Z,82.87
2022-09-17T00:49:56.622Z,82.88
2022-09-17T00:52:33.119Z,83.23
2022-09-17T00:55:10.752Z,82.38
2022-09-17T00:57:40.913Z,82.82
2022-09-17T01:00:13.230Z,82.86
2022-09-17T01:02:43.691Z,82.41
2022-09-17T01:05:15.186Z,82.38
2022-09-17T01:08:01.311Z,82.04
2022-09-17T01:11:05.872Z,82.57
2022-09-17T01:13:44.918Z,83.22
2022-09-17T01:16:22.715Z,83.06
2022-09-17T01:19:09.150Z,83.38
2022-09-17T01:21:51.397Z,83.64
2022-09-17T01:24:58.690Z,84.03
2022-09-17T01:27:58.253Z,84.08
2022-09-17T01:30:58.392Z,84.79
2022-09-17T01:33:34.840Z,84.41
2022-09-17T01:36:17.625Z,84.94
2022-09-17T01:38:55.971Z,84.69
2022-09-17T01:41:36.091Z,84.70
2022-09-17T01:44:11.558Z,85.46
2022-09-17T01:46:49.419Z,84.17
2022-09-17T01:49:19.816Z,84.85
2022-09-17T01:51:53.311Z,85.33
2022-09-17T01:54:28.166Z,86.53
2022-09-17T01:57:02.992Z,86.54
2022-09-17T01:59:37.280Z,85.90
2022-09-17T02:02:14.839Z,85.48
2022-09-17T02:04:50.622Z,86.36
2022-09-17T02:07:23.627Z,85.68
2022-09-17T02:10:02.165Z,85.25
2022-09-17T02:12:34.865Z,85.95
2022-09-17T02:15:08.584Z,85.27
2022-09-17T02:17:45.601Z,85.35
2022-09-17T02:20:20.863Z,85.03
2022-09-17T02:22:58.404Z,85.07
2022-09-17T02:25:31.527Z,85.72
2022-09-17T02:28:06.198Z,85.48
2022-09-17T02:30:36.000Z,85.32
2022-09-17T02:33:11.999Z,84.51
2022-09-17T02:35:43.671Z,84.48
2022-09-17T02:38:13.812Z,84.81
2022-09-17T02:40:51.621Z,84.81
2022-09-17T02:43:29.277Z,85.52
2022-09-17T02:46:17.316Z,85.71
2022-09-17T02:49:19.373Z,86.86
2022-09-17T02:52:00.110Z,86.17
2022-09-17T02:54:34.835Z,86.61
2022-09-17T02:57:19.047Z,85.38
2022-09-17T02:59:56.490Z,85.71
2022-09-17T03:02:31.541Z,85.53
2022-09-17T03:05:05.127Z,85.22
2022-09-17T03:07:35.027Z,84.98
2022-09-17T03:10:04.718Z,84.74
2022-09-17T03:12:34.782Z,84.88
2022-09-17T03:15:04.457Z,85.22
2022-09-17T03:17:34.473Z,85.06
2022-09-17T03:20:07.393Z,85.66
2022-09-17T03:22:37.375Z,85.84
2022-09-17T03:25:08.039Z,85.60
2022-09-17T03:27:37.838Z,84.94
2022-09-17T03:30:08.700Z,86.22
2022-09-17T03:32:38.449Z,86.42
2022-09-17T03:35:11.446Z,86.83
2022-09-17T03:37:41.196Z,87.15
2022-09-17T03:40:11.633Z,86.61
2022-09-17T03:42:41.433Z,85.74
2022-09-17T03:45:12.162Z,85.61
2022-09-17T03:47:41.887Z,85.96
2022-09-17T03:50:14.317Z,86.24
2022-09-17T03:52:45.888Z,85.52
2022-09-17T03:55:16.091Z,86.05
2022-09-17T03:57:46.215Z,86.14
2022-09-17T04:00:17.756Z,86.08
2022-09-17T04:02:47.883Z,86.59
2022-09-17T04:05:20.253Z,86.06
2022-09-17T04:07:49.908Z,87.80
2022-09-17T04:10:19.626Z,87.62
2022-09-17T04:12:49.288Z,87.40
2022-09-17T04:15:19.214Z,87.96
2022-09-17T04:17:49.003Z,87.54
2022-09-17T04:20:21.292Z,88.01
2022-09-17T04:22:50.970Z,87.87
2022-09-17T04:25:20.958Z,86.36
2022-09-17T04:27:50.758Z,86.73
2022-09-17T04:30:20.862Z,87.41
2022-09-17T04:32:50.554Z,86.67
2022-09-17T04:35:22.800Z,86.93
2022-09-17T04:37:56.199Z,86.94
2022-09-17T04:40:27.282Z,88.05
2022-09-17T04:42:59.570Z,87.49
2022-09-17T04:45:29.722Z,87.39
2022-09-17T04:47:59.552Z,87.00
2022-09-17T04:50:31.825Z,87.08
2022-09-17T04:53:01.554Z,86.63
2022-09-17T04:55:31.414Z,87.24
2022-09-17T04:58:01.129Z,87.10
2022-09-17T05:00:31.104Z,85.94
2022-09-17T05:03:00.792Z,85.87
2022-09-17T05:05:33.130Z,86.48
2022-09-17T05:08:02.975Z,87.04
2022-09-17T05:10:32.670Z,86.45
2022-09-17T05:13:02.409Z,85.80
2022-09-17T05:15:32.139Z,85.84
2022-09-17T05:18:01.829Z,86.52
2022-09-17T05:20:34.140Z,86.54
2022-09-17T05:23:03.911Z,85.15
2022-09-17T05:25:33.629Z,84.82
2022-09-17T05:28:04.000Z,84.89
2022-09-17T05:30:34.053Z,85.77
2022-09-17T05:33:04.673Z,85.24
2022-09-17T05:35:38.116Z,84.68
2022-09-17T05:38:09.012Z,84.89
2022-09-17T05:40:38.975Z,84.00
2022-09-17T05:43:09.906Z,83.97
2022-09-17T05:45:40.188Z,83.46
2022-09-17T05:48:12.406Z,82.74
2022-09-17T05:50:44.985Z,83.23
2022-09-17T05:53:16.095Z,84.21
2022-09-17T05:55:45.902Z,83.47
2022-09-17T05:58:17.068Z,84.02
2022-09-17T06:00:49.379Z,84.19
2022-09-17T06:03:20.917Z,83.82
2022-09-17T06:05:59.025Z,83.84
2022-09-17T06:08:31.885Z,83.56
2022-09-17T06:11:02.632Z,82.83
2022-09-17T06:13:32.604Z,83.18
2022-09-17T06:16:02.939Z,83.57
2022-09-17T06:18:34.277Z,84.28
2022-09-17T06:21:07.596Z,83.31
2022-09-17T06:23:38.001Z,83.38
2022-09-17T06:26:09.143Z,83.74
2022-09-17T06:28:41.885Z,83.25
2022-09-17T06:31:13.374Z,83.81
2022-09-17T06:33:43.599Z,83.94
2022-09-17T06:36:16.002Z,83.33
2022-09-17T06:38:46.268Z,83.22
2022-09-17T06:41:17.150Z,82.60
2022-09-17T06:43:47.050Z,82.54
2022-09-17T06:46:16.927Z,82.25
2022-09-17T06:48:46.618Z,82.21
2022-09-17T06:51:18.947Z,81.89
2022-09-17T06:53:48.976Z,82.31
2022-09-17T06:56:19.245Z,82.17
2022-09-17T06:58:48.954Z,82.41
2022-09-17T07:01:18.651Z,82.31
2022-09-17T07:03:49.891Z,82.15
2022-09-17T07:06:22.167Z,82.30
2022-09-17T07:08:51.890Z,82.47
2022-09-17T07:11:21.634Z,82.55
2022-09-17T07:13:51.407Z,82.69
2022-09-17T07:16:21.173Z,82.68
2022-09-17T07:18:51.011Z,82.90
2022-09-17T07:21:23.301Z,83.26
2022-09-17T07:23:54.518Z,83.53
2022-09-17T07:26:24.206Z,84.71
2022-09-17T07:28:54.006Z,85.44
2022-09-17T07:31:23.765Z,87.14
2022-09-17T07:33:53.616Z,87.86
2022-09-17T07:36:25.902Z,88.57
2022-09-17T07:38:55.540Z,91.00
2022-09-17T07:41:25.351Z,93.54
2022-09-17T07:43:56.504Z,95.03
2022-09-17T07:46:26.478Z,95.85
2022-09-17T07:48:56.174Z,96.21
2022-09-17T07:51:30.900Z,97.77
2022-09-17T07:54:02.491Z,96.76
2022-09-17T07:56:32.346Z,96.73
2022-09-17T07:59:02.033Z,96.63
2022-09-17T08:01:31.868Z,95.32
2022-09-17T08:04:01.547Z,96.06
2022-09-17T08:06:34.460Z,96.49
2022-09-17T08:09:04.168Z,96.06
2022-09-17T08:14:29.172Z,96.47
2022-09-17T08:16:59.536Z,95.85
2022-09-17T08:19:29.947Z,95.92
2022-09-17T08:22:02.333Z,95.70
2022-09-17T08:24:32.330Z,95.09
2022-09-17T08:27:01.997Z,95.61
2022-09-17T08:29:35.079Z,95.40
2022-09-17T08:32:05.773Z,96.19
2022-09-17T08:34:36.892Z,94.84
2022-09-17T08:37:09.171Z,95.96
2022-09-17T08:39:39.090Z,94.68
2022-09-17T08:42:17.777Z,94.09
2022-09-17T08:44:52.097Z,93.71
2022-09-17T08:47:29.527Z,92.12
2022-09-17T08:50:01.371Z,90.46
2022-09-17T08:52:56.034Z,90.07
2022-09-17T08:55:35.333Z,89.62
2022-09-17T08:58:25.183Z,88.34
2022-09-17T09:01:01.333Z,89.03
2022-09-17T09:03:44.648Z,86.61
2022-09-17T09:06:16.413Z,85.89
2022-09-17T09:08:53.062Z,84.16
2022-09-17T09:11:28.359Z,84.01
2022-09-17T09:14:03.335Z,85.53
2022-09-17T09:16:36.256Z,84.23
2022-09-17T09:19:22.844Z,85.00
2022-09-17T09:22:04.770Z,85.99
2022-09-17T09:24:44.173Z,85.69
2022-09-17T09:27:20.692Z,86.57
2022-09-17T09:30:02.169Z,85.30
2022-09-17T09:32:45.451Z,85.75
2022-09-17T09:35:21.467Z,83.84
2022-09-17T09:37:58.680Z,85.30
2022-09-17T09:40:40.031Z,83.57
2022-09-17T09:43:20.525Z,82.57
2022-09-17T09:46:22.331Z,84.09
2022-09-17T09:49:08.109Z,85.30
2022-09-17T09:51:50.079Z,83.80
2022-09-17T09:54:44.470Z,83.65
2022-09-17T09:57:19.273Z,82.94
2022-09-17T09:59:48.932Z,82.22
2022-09-17T10:02:18.614Z,81.71
2022-09-17T10:04:52.742Z,82.18
2022-09-17T10:07:23.233Z,79.74
2022-09-17T10:10:11.706Z,78.82
2022-09-17T10:12:43.899Z,77.00
2022-09-17T10:15:29.068Z,78.79
2022-09-17T10:18:14.842Z,77.25
2022-09-17T10:20:52.768Z,75.41
2022-09-17T10:23:23.842Z,76.49
2022-09-17T10:25:55.686Z,75.33
2022-09-17T10:28:37.750Z,76.63
2022-09-17T10:31:10.785Z,76.56
2022-09-17T10:33:54.471Z,75.52
2022-09-17T10:36:43.394Z,74.85
2022-09-17T10:39:34.921Z,75.68
2022-09-17T10:42:06.926Z,74.50
2022-09-17T10:44:40.187Z,73.80
2022-09-17T10:47:16.276Z,72.54
2022-09-17T10:49:50.392Z,69.63
2022-09-17T10:52:28.475Z,67.21
2022-09-17T10:55:15.343Z,65.62
2022-09-17T10:58:03.879Z,64.22
2022-09-17T11:00:48.063Z,63.79
2022-09-17T11:03:46.349Z,60.37
2022-09-17T11:06:40.672Z,59.84
2022-09-17T11:09:25.908Z,57.47
2022-09-17T11:12:09.108Z,59.04
2022-09-17T11:14:52.385Z,60.77
2022-09-17T11:17:54.591Z,60.30
2022-09-17T11:20:45.080Z,58.76
2022-09-17T11:23:32.331Z,59.35
2022-09-17T11:26:08.410Z,58.02
2022-09-17T11:28:55.603Z,56.47
2022-09-17T11:31:35.617Z,57.99
2022-09-17T11:34:28.360Z,57.10
2022-09-17T11:37:07.724Z,57.73
2022-09-17T11:39:47.029Z,56.91
2022-09-17T11:42:22.401Z,58.59
2022-09-17T11:44:57.436Z,59.35
2022-09-17T11:47:32.333Z,61.46
2022-09-17T11:50:06.275Z,62.20
2022-09-17T11:52:43.050Z,66.90
2022-09-17T11:55:23.768Z,69.45
2022-09-17T11:57:59.560Z,71.58
2022-09-17T12:00:32.632Z,70.91
2022-09-17T12:03:06.906Z,72.09
2022-09-17T12:05:43.016Z,73.57
2022-09-17T12:08:21.083Z,69.95
2022-09-17T12:10:57.019Z,70.07
2022-09-17T12:13:36.274Z,70.15
2022-09-17T12:16:17.304Z,71.14
2022-09-17T12:18:55.729Z,70.96
2022-09-17T12:21:30.645Z,70.62
2022-09-17T12:24:10.577Z,70.63
2022-09-17T12:27:04.746Z,69.04
2022-09-17T12:29:46.395Z,68.61
2022-09-17T12:32:35.850Z,66.03
2022-09-17T12:35:17.417Z,66.55
2022-09-17T12:37:59.399Z,70.78
2022-09-17T12:40:39.292Z,72.15
2022-09-17T12:43:34.199Z,73.88
2022-09-17T12:46:17.557Z,73.48
2022-09-17T12:49:07.567Z,72.72
2022-09-17T12:51:55.874Z,71.08
2022-09-17T12:54:52.945Z,71.35
2022-09-17T12:57:35.987Z,70.50
2022-09-17T13:00:09.475Z,70.67
2022-09-17T13:02:44.144Z,69.37
2022-09-17T13:05:36.141Z,67.08
2022-09-17T13:08:48.226Z,67.53
2022-09-17T13:11:49.705Z,66.88
2022-09-17T13:14:31.743Z,65.87
2022-09-17T13:17:08.998Z,68.29
2022-09-17T13:19:46.749Z,69.72
2022-09-17T13:22:20.329Z,69.23
2022-09-17T13:25:03.809Z,68.29
2022-09-17T13:27:37.791Z,67.75
2022-09-17T13:30:12.289Z,67.36
2022-09-17T13:32:59.690Z,66.90
2022-09-17T13:35:53.874Z,65.91
2022-09-17T13:38:25.354Z,66.81
2022-09-17T13:41:15.289Z,66.41
2022-09-17T13:43:49.652Z,66.95
2022-09-17T13:46:25.621Z,68.84
2022-09-17T13:49:02.651Z,69.49
2022-09-17T13:51:53.812Z,69.70
2022-09-17T13:54:27.258Z,68.76
2022-09-17T13:57:11.110Z,69.50
2022-09-17T13:59:41.542Z,68.62
2022-09-17T14:02:40.952Z,67.78
2022-09-17T14:05:32.514Z,68.06
2022-09-17T14:08:31.624Z,69.48
2022-09-17T14:11:04.507Z,69.67
2022-09-17T14:13:55.588Z,69.67
2022-09-17T14:16:50.589Z,71.04
2022-09-17T14:19:51.065Z,69.29
2022-09-17T14:22:28.232Z,68.80
2022-09-17T14:24:58.338Z,68.59
2022-09-17T14:27:48.109Z,69.73
2022-09-17T14:30:21.210Z,68.34
2022-09-17T14:32:57.756Z,66.71
2022-09-17T14:35:36.327Z,66.07
2022-09-17T14:38:13.779Z,65.70
2022-09-17T14:40:47.568Z,65.13
2022-09-17T14:43:25.008Z,65.46
2022-09-17T14:45:56.494Z,65.56
2022-09-17T14:48:34.282Z,65.22
2022-09-17T14:51:32.042Z,64.43
2022-09-17T14:54:17.937Z,65.85
2022-09-17T14:56:54.866Z,66.05
2022-09-17T14:59:44.857Z,66.25
2022-09-17T15:02:30.735Z,65.52
2022-09-17T15:05:00.551Z,66.41
2022-09-17T15:07:33.082Z,67.14
2022-09-17T15:10:16.529Z,68.49
2022-09-17T15:12:48.347Z,67.62
2022-09-17T15:15:26.514Z,68.40
2022-09-17T15:17:57.263Z,68.50
2022-09-17T15:20:31.455Z,66.13
2022-09-17T15:23:12.990Z,65.51
2022-09-17T15:25:44.956Z,65.42
2022-09-17T15:28:32.524Z,66.20
2022-09-17T15:31:02.579Z,67.31
2022-09-17T15:33:34.443Z,68.00
2022-09-17T15:36:12.121Z,68.24
2022-09-17T15:38:45.201Z,69.64
2022-09-17T15:41:35.345Z,69.66
2022-09-17T15:44:29.770Z,70.66
2022-09-17T15:47:30.581Z,70.99
2022-09-17T15:50:14.700Z,69.92
2022-09-17T15:52:44.807Z,69.67
2022-09-17T15:55:33.170Z,69.09
2022-09-17T15:58:04.125Z,68.89
2022-09-17T16:00:34.344Z,68.70
2022-09-17T16:03:53.917Z,68.98
2022-09-17T16:06:41.491Z,69.47
2022-09-17T16:09:39.279Z,68.88
2022-09-17T16:12:15.107Z,69.83
2022-09-17T16:14:52.893Z,69.60
2022-09-17T16:17:38.293Z,70.88
2022-09-17T16:20:16.942Z,70.96
2022-09-17T16:22:48.221Z,72.17
2022-09-17T16:25:18.729Z,72.20
2022-09-17T16:27:55.008Z,71.77
2022-09-17T16:30:26.392Z,69.11
2022-09-17T16:32:56.603Z,68.87
2022-09-17T16:35:27.832Z,67.89
2022-09-17T16:37:59.268Z,69.06
2022-09-17T16:40:31.373Z,68.12
2022-09-17T16:43:06.053Z,67.43
2022-09-17T16:45:35.774Z,68.05
2022-09-17T16:48:05.852Z,68.40
2022-09-17T16:50:36.075Z,69.12
2022-09-17T16:53:06.574Z,69.46
2022-09-17T16:55:36.285Z,69.53
2022-09-17T16:58:08.588Z,69.20
2022-09-17T17:00:38.942Z,69.78
2022-09-17T17:03:08.853Z,71.08
2022-09-17T17:05:40.443Z,70.61
2022-09-17T17:08:11.658Z,71.63
2022-09-17T17:10:41.685Z,71.19
2022-09-17T17:13:13.938Z,72.02
2022-09-17T17:15:44.075Z,72.37
2022-09-17T17:18:13.872Z,71.02
2022-09-17T17:20:43.560Z,71.62
2022-09-17T17:23:13.804Z,72.63
2022-09-17T17:25:43.469Z,82.20
2022-09-17T17:28:15.791Z,86.41
2022-09-17T17:30:50.341Z,90.20
2022-09-17T17:33:20.069Z,92.28
2022-09-17T17:35:49.760Z,93.44
2022-09-17T17:38:20.391Z,94.20
2022-09-17T17:40:50.185Z,94.45
2022-09-17T17:43:22.472Z,93.95
2022-09-17T17:45:52.170Z,92.59
2022-09-17T17:48:21.775Z,92.48
2022-09-17T17:50:55.900Z,92.67
2022-09-17T17:53:26.474Z,92.70
2022-09-17T17:56:00.685Z,94.09
2022-09-17T17:58:33.210Z,94.49
2022-09-17T18:01:02.949Z,94.73
2022-09-17T18:03:32.641Z,95.97
2022-09-17T18:06:02.329Z,96.60
2022-09-17T18:08:32.106Z,96.72
2022-09-17T18:11:04.222Z,95.11
2022-09-17T18:13:36.787Z,94.62
2022-09-17T18:16:09.220Z,95.82
2022-09-17T18:18:44.460Z,95.58
2022-09-17T18:21:17.054Z,95.72
2022-09-17T18:23:47.491Z,97.15
2022-09-17T18:26:18.706Z,97.18
2022-09-17T18:28:51.517Z,94.91
2022-09-17T18:31:25.498Z,96.65
2022-09-17T18:33:58.558Z,96.77
2022-09-17T18:36:29.509Z,96.61
2022-09-17T18:39:56.414Z,97.95
2022-09-17T18:41:52.822Z,98.38
2022-09-17T18:44:25.320Z,98.73
2022-09-17T18:46:55.153Z,98.65
2022-09-17T18:49:24.909Z,97.99
2022-09-17T18:51:54.627Z,97.35
2022-09-17T18:54:24.331Z,97.33
2022-09-17T18:56:54.017Z,97.38
2022-09-17T18:59:26.290Z,98.17
2022-09-17T19:01:55.985Z,97.64
2022-09-17T19:04:25.932Z,97.17
2022-09-17T19:06:55.492Z,97.46
2022-09-17T19:09:25.506Z,97.82
2022-09-17T19:11:55.210Z,98.80
2022-09-17T19:14:27.545Z,97.23
2022-09-17T19:16:57.989Z,98.91
2022-09-17T19:19:27.725Z,97.69
2022-09-17T19:21:57.488Z,98.06
2022-09-17T19:24:27.195Z,98.14
2022-09-17T19:26:56.898Z,95.84
2022-09-17T19:29:29.277Z,96.47
2022-09-17T19:31:59.018Z,95.97
2022-09-17T19:34:28.720Z,94.38
2022-09-17T19:36:58.427Z,93.96
2022-09-17T19:39:28.114Z,93.78
2022-09-17T19:42:00.442Z,90.73
2022-09-17T19:44:32.719Z,90.85
2022-09-17T19:47:02.566Z,92.94
2022-09-17T19:49:32.229Z,91.50
2022-09-17T19:52:01.904Z,91.62
2022-09-17T19:54:31.696Z,92.10
2022-09-17T19:57:01.404Z,92.04
2022-09-17T19:59:33.598Z,91.07
2022-09-17T20:02:03.262Z,91.38
2022-09-17T20:04:33.033Z,92.41
2022-09-17T20:07:04.577Z,91.73
2022-09-17T20:09:34.603Z,92.84
2022-09-17T20:12:04.834Z,91.05
2022-09-17T20:14:37.151Z,91.34
2022-09-17T20:17:06.809Z,91.97
2022-09-17T20:19:36.465Z,92.25
2022-09-17T20:22:06.189Z,92.55
2022-09-17T20:24:36.592Z,92.36
2022-09-17T20:27:06.570Z,93.22
2022-09-17T20:29:38.809Z,93.15
2022-09-17T20:32:08.598Z,92.40
2022-09-17T20:34:38.217Z,93.06
2022-09-17T20:37:13.484Z,93.81
2022-09-17T20:39:43.631Z,94.00
2022-09-17T20:42:13.437Z,96.22
2022-09-17T20:44:45.714Z,98.53
2022-09-17T20:47:15.394Z,96.75
2022-09-17T20:49:45.444Z,96.05
2022-09-17T20:52:19.084Z,98.77
2022-09-17T20:54:50.661Z,100.00
2022-09-17T20:57:20.308Z,100.00
2022-09-17T20:59:55.794Z,100.00
2022-09-17T21:02:25.544Z,99.14
2022-09-17T21:04:56.059Z,100.00
2022-09-17T21:07:25.996Z,100.00
2022-09-17T21:09:55.640Z,100.00
2022-09-17T21:12:27.621Z,99.92
2022-09-17T21:15:00.076Z,100.00
2022-09-17T21:17:29.667Z,100.00
2022-09-17T21:19:59.330Z,100.00
2022-09-17T21:22:29.026Z,100.00
2022-09-17T21:24:59.541Z,100.00
2022-09-17T21:27:29.191Z,100.00
2022-09-17T21:30:02.642Z,100.00
2022-09-17T21:32:32.342Z,100.00
2022-09-17T21:35:01.965Z,100.00
2022-09-17T21:37:31.667Z,100.00
2022-09-17T21:40:01.326Z,100.00
2022-09-17T21:42:31.231Z,98.89
2022-09-17T21:45:03.617Z,99.17
2022-09-17T21:47:34.996Z,97.86
2022-09-17T21:50:04.707Z,99.29
2022-09-17T21:52:34.619Z,98.68
2022-09-17T21:55:04.300Z,98.02
2022-09-17T21:57:33.929Z,98.67
2022-09-17T22:00:09.107Z,97.74
2022-09-17T22:02:38.849Z,97.87
2022-09-17T22:05:08.681Z,99.16
2022-09-17T22:07:38.973Z,100.00
2022-09-17T22:10:14.353Z,98.88
2022-09-17T22:12:44.110Z,99.91
2022-09-17T22:15:16.392Z,100.00
2022-09-17T22:17:46.071Z,100.00
2022-09-17T22:20:15.771Z,100.00
2022-09-17T22:22:45.534Z,100.00
2022-09-17T22:25:15.267Z,100.00
2022-09-17T22:28:03.963Z,100.00
2022-09-17T22:30:38.160Z,100.00
2022-09-17T22:33:08.007Z,99.53
2022-09-17T22:35:37.805Z,99.83
2022-09-17T22:38:07.533Z,100.00
2022-09-17T22:40:38.835Z,100.00
2022-09-17T22:43:08.537Z,100.00
2022-09-17T22:45:40.827Z,100.00
2022-09-17T22:48:10.528Z,100.00
2022-09-17T22:50:40.250Z,100.00
2022-09-17T22:53:09.937Z,100.00
2022-09-17T22:55:39.913Z,100.00
2022-09-17T22:58:09.730Z,100.00
2022-09-17T23:00:43.309Z,100.00
2022-09-17T23:03:13.071Z,100.00
2022-09-17T23:05:42.797Z,100.00
2022-09-17T23:08:12.524Z,100.00
2022-09-17T23:10:42.778Z,100.00
2022-09-17T23:13:13.835Z,100.00
2022-09-17T23:15:46.189Z,100.00
2022-09-17T23:18:16.051Z,100.00
2022-09-17T23:20:45.880Z,100.00
2022-09-17T23:23:15.608Z,100.00
2022-09-17T23:25:45.295Z,100.00
2022-09-17T23:28:15.111Z,100.00
2022-09-17T23:30:47.481Z,100.00
2022-09-17T23:33:17.595Z,100.00
2022-09-17T23:35:47.285Z,100.00
2022-09-17T23:38:16.993Z,100.00
2022-09-17T23:40:47.206Z,100.00
2022-09-17T23:43:16.939Z,100.00
2022-09-17T23:45:49.382Z,100.00
2022-09-17T23:48:19.032Z,99.48
2022-09-17T23:50:49.165Z,100.00
2022-09-17T23:53:18.852Z,100.00
2022-09-17T23:55:49.226Z,100.00
2022-09-17T23:58:19.299Z,100.00
